sensor_id;sensor_type;location;lat;lon;timestamp;P1;durP1;ratioP1;P2;durP2;ratioP2
28910;SDS011;16028;42.642;23.310;2022-07-06T00:00:19;17.55;;;13.23;;
28910;SDS011;16028;42.642;23.310;2022-07-06T00:02:46;15.55;;;12.18;;
28910;SDS011;16028;42.642;23.310;2022-07-06T00:05:14;11.88;;;10.65;;
28910;SDS011;16028;42.642;23.310;2022-07-06T00:07:41;12.68;;;11.35;;
28910;SDS011;16028;42.642;23.310;2022-07-06T00:10:08;12.80;;;11.10;;
28910;SDS011;16028;42.642;23.310;2022-07-06T00:12:35;14.65;;;12.32;;
28910;SDS011;16028;42.642;23.310;2022-07-06T00:15:01;13.35;;;11.50;;
28910;SDS011;16028;42.642;23.310;2022-07-06T00:17:28;14.07;;;12.18;;
28910;SDS011;16028;42.642;23.310;2022-07-06T00:19:55;17.40;;;13.93;;
28910;SDS011;16028;42.642;23.310;2022-07-06T00:22:23;17.08;;;14.13;;
28910;SDS011;16028;42.642;23.310;2022-07-06T00:24:50;17.58;;;14.23;;
28910;SDS011;16028;42.642;23.310;2022-07-06T00:27:17;17.00;;;14.30;;
28910;SDS011;16028;42.642;23.310;2022-07-06T00:29:43;16.52;;;14.05;;
28910;SDS011;16028;42.642;23.310;2022-07-06T00:32:10;18.67;;;14.15;;
28910;SDS011;16028;42.642;23.310;2022-07-06T00:34:38;17.92;;;14.85;;
28910;SDS011;16028;42.642;23.310;2022-07-06T00:37:05;21.83;;;16.25;;
28910;SDS011;16028;42.642;23.310;2022-07-06T00:39:34;20.02;;;15.95;;
28910;SDS011;16028;42.642;23.310;2022-07-06T00:42:00;21.60;;;15.43;;
28910;SDS011;16028;42.642;23.310;2022-07-06T00:44:27;20.30;;;16.35;;
28910;SDS011;16028;42.642;23.310;2022-07-06T00:46:56;17.80;;;14.27;;
28910;SDS011;16028;42.642;23.310;2022-07-06T00:49:22;24.05;;;15.02;;
28910;SDS011;16028;42.642;23.310;2022-07-06T00:52:07;23.88;;;15.65;;
28910;SDS011;16028;42.642;23.310;2022-07-06T00:54:35;21.55;;;15.88;;
28910;SDS011;16028;42.642;23.310;2022-07-06T00:57:03;17.83;;;14.70;;
28910;SDS011;16028;42.642;23.310;2022-07-06T00:59:30;16.98;;;14.45;;
28910;SDS011;16028;42.642;23.310;2022-07-06T01:01:57;16.52;;;13.50;;
28910;SDS011;16028;42.642;23.310;2022-07-06T01:04:24;16.23;;;13.18;;
28910;SDS011;16028;42.642;23.310;2022-07-06T01:06:51;15.40;;;13.05;;
28910;SDS011;16028;42.642;23.310;2022-07-06T01:09:18;17.23;;;14.13;;
28910;SDS011;16028;42.642;23.310;2022-07-06T01:11:46;16.15;;;13.20;;
28910;SDS011;16028;42.642;23.310;2022-07-06T01:14:14;16.52;;;13.75;;
28910;SDS011;16028;42.642;23.310;2022-07-06T01:16:41;14.70;;;12.02;;
28910;SDS011;16028;42.642;23.310;2022-07-06T01:19:07;17.63;;;13.13;;
28910;SDS011;16028;42.642;23.310;2022-07-06T01:21:37;15.48;;;12.95;;
28910;SDS011;16028;42.642;23.310;2022-07-06T01:24:04;16.77;;;12.80;;
28910;SDS011;16028;42.642;23.310;2022-07-06T01:26:31;15.68;;;13.20;;
28910;SDS011;16028;42.642;23.310;2022-07-06T01:28:58;16.42;;;12.73;;
28910;SDS011;16028;42.642;23.310;2022-07-06T01:31:26;18.63;;;12.90;;
28910;SDS011;16028;42.642;23.310;2022-07-06T01:33:54;20.00;;;14.05;;
28910;SDS011;16028;42.642;23.310;2022-07-06T01:36:22;23.98;;;14.00;;
28910;SDS011;16028;42.642;23.310;2022-07-06T01:38:51;17.17;;;13.98;;
28910;SDS011;16028;42.642;23.310;2022-07-06T01:41:20;18.27;;;14.40;;
28910;SDS011;16028;42.642;23.310;2022-07-06T01:43:47;18.35;;;15.23;;
28910;SDS011;16028;42.642;23.310;2022-07-06T01:46:14;18.38;;;13.88;;
28910;SDS011;16028;42.642;23.310;2022-07-06T01:48:41;19.10;;;14.38;;
28910;SDS011;16028;42.642;23.310;2022-07-06T01:51:08;17.30;;;13.55;;
28910;SDS011;16028;42.642;23.310;2022-07-06T01:53:37;20.95;;;13.82;;
28910;SDS011;16028;42.642;23.310;2022-07-06T01:56:05;17.30;;;13.93;;
28910;SDS011;16028;42.642;23.310;2022-07-06T01:58:32;13.60;;;11.95;;
28910;SDS011;16028;42.642;23.310;2022-07-06T02:00:59;16.50;;;11.80;;
28910;SDS011;16028;42.642;23.310;2022-07-06T02:03:26;18.67;;;11.40;;
28910;SDS011;16028;42.642;23.310;2022-07-06T02:05:53;16.75;;;12.50;;
28910;SDS011;16028;42.642;23.310;2022-07-06T02:08:20;15.73;;;12.50;;
28910;SDS011;16028;42.642;23.310;2022-07-06T02:10:47;14.43;;;12.65;;
28910;SDS011;16028;42.642;23.310;2022-07-06T02:13:15;16.23;;;12.50;;
28910;SDS011;16028;42.642;23.310;2022-07-06T02:15:41;14.95;;;11.60;;
28910;SDS011;16028;42.642;23.310;2022-07-06T02:18:08;14.18;;;11.55;;
28910;SDS011;16028;42.642;23.310;2022-07-06T02:20:35;18.27;;;12.40;;
28910;SDS011;16028;42.642;23.310;2022-07-06T02:23:02;14.43;;;12.20;;
28910;SDS011;16028;42.642;23.310;2022-07-06T02:25:29;14.82;;;12.20;;
28910;SDS011;16028;42.642;23.310;2022-07-06T02:27:56;15.02;;;12.50;;
28910;SDS011;16028;42.642;23.310;2022-07-06T02:30:24;13.88;;;11.98;;
28910;SDS011;16028;42.642;23.310;2022-07-06T02:32:51;14.52;;;11.80;;
28910;SDS011;16028;42.642;23.310;2022-07-06T02:35:18;13.13;;;11.23;;
28910;SDS011;16028;42.642;23.310;2022-07-06T02:37:45;14.52;;;11.60;;
28910;SDS011;16028;42.642;23.310;2022-07-06T02:40:12;18.02;;;11.75;;
28910;SDS011;16028;42.642;23.310;2022-07-06T02:42:39;13.27;;;11.15;;
28910;SDS011;16028;42.642;23.310;2022-07-06T02:45:06;14.95;;;11.60;;
28910;SDS011;16028;42.642;23.310;2022-07-06T02:47:35;14.23;;;11.35;;
28910;SDS011;16028;42.642;23.310;2022-07-06T02:50:03;14.32;;;11.77;;
28910;SDS011;16028;42.642;23.310;2022-07-06T02:52:31;12.77;;;11.48;;
28910;SDS011;16028;42.642;23.310;2022-07-06T02:54:58;15.15;;;12.27;;
28910;SDS011;16028;42.642;23.310;2022-07-06T02:57:24;13.45;;;10.70;;
28910;SDS011;16028;42.642;23.310;2022-07-06T02:59:51;18.55;;;12.05;;
28910;SDS011;16028;42.642;23.310;2022-07-06T03:02:18;16.50;;;11.65;;
28910;SDS011;16028;42.642;23.310;2022-07-06T03:04:46;13.88;;;11.55;;
28910;SDS011;16028;42.642;23.310;2022-07-06T03:07:13;19.83;;;11.82;;
28910;SDS011;16028;42.642;23.310;2022-07-06T03:09:40;13.05;;;11.75;;
28910;SDS011;16028;42.642;23.310;2022-07-06T03:12:07;14.70;;;12.75;;
28910;SDS011;16028;42.642;23.310;2022-07-06T03:14:34;13.40;;;12.00;;
28910;SDS011;16028;42.642;23.310;2022-07-06T03:17:01;17.75;;;12.82;;
28910;SDS011;16028;42.642;23.310;2022-07-06T03:19:28;14.32;;;10.98;;
28910;SDS011;16028;42.642;23.310;2022-07-06T03:21:56;11.63;;;9.40;;
28910;SDS011;16028;42.642;23.310;2022-07-06T03:24:23;9.77;;;8.05;;
28910;SDS011;16028;42.642;23.310;2022-07-06T03:26:50;9.85;;;8.20;;
28910;SDS011;16028;42.642;23.310;2022-07-06T03:29:17;8.98;;;7.90;;
28910;SDS011;16028;42.642;23.310;2022-07-06T03:31:44;8.88;;;6.63;;
28910;SDS011;16028;42.642;23.310;2022-07-06T03:34:10;11.80;;;6.88;;
28910;SDS011;16028;42.642;23.310;2022-07-06T03:36:37;8.60;;;7.22;;
28910;SDS011;16028;42.642;23.310;2022-07-06T03:39:06;13.18;;;6.82;;
28910;SDS011;16028;42.642;23.310;2022-07-06T03:41:33;11.70;;;6.93;;
28910;SDS011;16028;42.642;23.310;2022-07-06T03:44:00;10.25;;;7.03;;
28910;SDS011;16028;42.642;23.310;2022-07-06T03:46:27;8.40;;;6.50;;
28910;SDS011;16028;42.642;23.310;2022-07-06T03:48:54;11.65;;;7.30;;
28910;SDS011;16028;42.642;23.310;2022-07-06T03:51:21;9.43;;;6.45;;
28910;SDS011;16028;42.642;23.310;2022-07-06T03:53:48;9.07;;;6.35;;
28910;SDS011;16028;42.642;23.310;2022-07-06T03:56:16;10.80;;;6.88;;
28910;SDS011;16028;42.642;23.310;2022-07-06T03:58:58;9.30;;;6.05;;
28910;SDS011;16028;42.642;23.310;2022-07-06T04:01:26;9.73;;;6.28;;
28910;SDS011;16028;42.642;23.310;2022-07-06T04:03:53;11.30;;;6.32;;
28910;SDS011;16028;42.642;23.310;2022-07-06T04:06:19;10.18;;;6.85;;
28910;SDS011;16028;42.642;23.310;2022-07-06T04:08:46;9.60;;;6.50;;
28910;SDS011;16028;42.642;23.310;2022-07-06T04:11:13;10.55;;;7.00;;
28910;SDS011;16028;42.642;23.310;2022-07-06T04:13:42;10.32;;;7.00;;
28910;SDS011;16028;42.642;23.310;2022-07-06T04:16:08;10.57;;;6.53;;
28910;SDS011;16028;42.642;23.310;2022-07-06T04:18:35;7.95;;;6.70;;
28910;SDS011;16028;42.642;23.310;2022-07-06T04:21:02;10.05;;;6.60;;
28910;SDS011;16028;42.642;23.310;2022-07-06T04:23:29;7.93;;;6.10;;
28910;SDS011;16028;42.642;23.310;2022-07-06T04:25:56;12.40;;;6.28;;
28910;SDS011;16028;42.642;23.310;2022-07-06T04:28:23;13.55;;;6.10;;
28910;SDS011;16028;42.642;23.310;2022-07-06T04:30:52;11.63;;;6.22;;
28910;SDS011;16028;42.642;23.310;2022-07-06T04:33:19;6.70;;;5.97;;
28910;SDS011;16028;42.642;23.310;2022-07-06T04:35:45;9.57;;;6.40;;
28910;SDS011;16028;42.642;23.310;2022-07-06T04:38:12;9.25;;;6.28;;
28910;SDS011;16028;42.642;23.310;2022-07-06T04:40:39;8.88;;;6.80;;
28910;SDS011;16028;42.642;23.310;2022-07-06T04:43:06;13.05;;;6.80;;
28910;SDS011;16028;42.642;23.310;2022-07-06T04:45:33;7.10;;;6.28;;
28910;SDS011;16028;42.642;23.310;2022-07-06T04:48:01;8.20;;;6.13;;
28910;SDS011;16028;42.642;23.310;2022-07-06T04:50:28;9.60;;;6.45;;
28910;SDS011;16028;42.642;23.310;2022-07-06T04:52:57;11.57;;;6.93;;
28910;SDS011;16028;42.642;23.310;2022-07-06T04:55:23;12.43;;;7.22;;
28910;SDS011;16028;42.642;23.310;2022-07-06T04:57:53;10.20;;;7.65;;
28910;SDS011;16028;42.642;23.310;2022-07-06T05:00:20;11.93;;;8.13;;
28910;SDS011;16028;42.642;23.310;2022-07-06T05:02:47;10.13;;;7.38;;
28910;SDS011;16028;42.642;23.310;2022-07-06T05:05:15;12.02;;;9.07;;
28910;SDS011;16028;42.642;23.310;2022-07-06T05:07:42;12.30;;;9.20;;
28910;SDS011;16028;42.642;23.310;2022-07-06T05:10:10;13.23;;;8.50;;
28910;SDS011;16028;42.642;23.310;2022-07-06T05:12:37;15.73;;;9.45;;
28910;SDS011;16028;42.642;23.310;2022-07-06T05:15:05;16.33;;;9.50;;
28910;SDS011;16028;42.642;23.310;2022-07-06T05:17:33;10.98;;;8.98;;
28910;SDS011;16028;42.642;23.310;2022-07-06T05:20:00;12.77;;;10.05;;
28910;SDS011;16028;42.642;23.310;2022-07-06T05:22:28;11.57;;;9.52;;
28910;SDS011;16028;42.642;23.310;2022-07-06T05:24:55;12.30;;;9.18;;
28910;SDS011;16028;42.642;23.310;2022-07-06T05:27:22;18.10;;;9.73;;
28910;SDS011;16028;42.642;23.310;2022-07-06T05:29:49;12.00;;;9.23;;
28910;SDS011;16028;42.642;23.310;2022-07-06T05:32:16;13.98;;;9.45;;
28910;SDS011;16028;42.642;23.310;2022-07-06T05:34:42;12.52;;;9.63;;
28910;SDS011;16028;42.642;23.310;2022-07-06T05:37:09;10.60;;;9.13;;
28910;SDS011;16028;42.642;23.310;2022-07-06T05:39:38;12.30;;;8.95;;
28910;SDS011;16028;42.642;23.310;2022-07-06T05:42:08;12.45;;;8.88;;
28910;SDS011;16028;42.642;23.310;2022-07-06T05:44:35;11.35;;;8.27;;
28910;SDS011;16028;42.642;23.310;2022-07-06T05:47:02;10.80;;;8.57;;
28910;SDS011;16028;42.642;23.310;2022-07-06T05:49:43;15.38;;;9.63;;
28910;SDS011;16028;42.642;23.310;2022-07-06T05:52:27;11.23;;;9.13;;
28910;SDS011;16028;42.642;23.310;2022-07-06T05:54:55;11.32;;;10.13;;
28910;SDS011;16028;42.642;23.310;2022-07-06T05:57:22;14.40;;;9.98;;
28910;SDS011;16028;42.642;23.310;2022-07-06T05:59:49;12.32;;;10.52;;
28910;SDS011;16028;42.642;23.310;2022-07-06T06:02:16;10.77;;;9.63;;
28910;SDS011;16028;42.642;23.310;2022-07-06T06:04:43;11.77;;;9.75;;
28910;SDS011;16028;42.642;23.310;2022-07-06T06:07:09;13.20;;;9.90;;
28910;SDS011;16028;42.642;23.310;2022-07-06T06:09:36;13.43;;;9.15;;
28910;SDS011;16028;42.642;23.310;2022-07-06T06:12:05;10.82;;;8.85;;
28910;SDS011;16028;42.642;23.310;2022-07-06T06:14:32;11.50;;;8.40;;
28910;SDS011;16028;42.642;23.310;2022-07-06T06:16:59;13.93;;;8.13;;
28910;SDS011;16028;42.642;23.310;2022-07-06T06:19:26;13.73;;;9.07;;
28910;SDS011;16028;42.642;23.310;2022-07-06T06:21:53;14.50;;;9.23;;
28910;SDS011;16028;42.642;23.310;2022-07-06T06:24:19;15.48;;;10.60;;
28910;SDS011;16028;42.642;23.310;2022-07-06T06:26:49;10.18;;;8.63;;
28910;SDS011;16028;42.642;23.310;2022-07-06T06:29:17;10.65;;;9.23;;
28910;SDS011;16028;42.642;23.310;2022-07-06T06:31:44;11.90;;;9.45;;
28910;SDS011;16028;42.642;23.310;2022-07-06T06:34:10;14.02;;;10.02;;
28910;SDS011;16028;42.642;23.310;2022-07-06T06:36:38;20.65;;;10.35;;
28910;SDS011;16028;42.642;23.310;2022-07-06T06:39:05;14.98;;;10.43;;
28910;SDS011;16028;42.642;23.310;2022-07-06T06:41:31;18.92;;;10.80;;
28910;SDS011;16028;42.642;23.310;2022-07-06T06:43:58;15.20;;;10.32;;
28910;SDS011;16028;42.642;23.310;2022-07-06T06:46:26;14.70;;;10.43;;
28910;SDS011;16028;42.642;23.310;2022-07-06T06:48:53;13.98;;;10.70;;
28910;SDS011;16028;42.642;23.310;2022-07-06T06:51:20;16.75;;;10.43;;
28910;SDS011;16028;42.642;23.310;2022-07-06T06:53:47;16.95;;;11.85;;
28910;SDS011;16028;42.642;23.310;2022-07-06T06:56:14;15.18;;;11.30;;
28910;SDS011;16028;42.642;23.310;2022-07-06T06:58:41;18.25;;;11.57;;
28910;SDS011;16028;42.642;23.310;2022-07-06T07:01:08;22.25;;;14.02;;
28910;SDS011;16028;42.642;23.310;2022-07-06T07:03:37;14.38;;;11.70;;
28910;SDS011;16028;42.642;23.310;2022-07-06T07:06:04;17.05;;;11.88;;
28910;SDS011;16028;42.642;23.310;2022-07-06T07:08:31;14.20;;;11.88;;
28910;SDS011;16028;42.642;23.310;2022-07-06T07:10:57;15.65;;;11.80;;
28910;SDS011;16028;42.642;23.310;2022-07-06T07:13:24;16.05;;;12.65;;
28910;SDS011;16028;42.642;23.310;2022-07-06T07:15:51;18.38;;;12.13;;
28910;SDS011;16028;42.642;23.310;2022-07-06T07:18:20;15.13;;;13.00;;
28910;SDS011;16028;42.642;23.310;2022-07-06T07:20:48;18.55;;;13.02;;
28910;SDS011;16028;42.642;23.310;2022-07-06T07:23:15;22.10;;;13.43;;
28910;SDS011;16028;42.642;23.310;2022-07-06T07:25:42;17.85;;;12.52;;
28910;SDS011;16028;42.642;23.310;2022-07-06T07:28:09;18.58;;;12.80;;
28910;SDS011;16028;42.642;23.310;2022-07-06T07:30:36;18.05;;;13.80;;
28910;SDS011;16028;42.642;23.310;2022-07-06T07:33:06;20.33;;;13.63;;
28910;SDS011;16028;42.642;23.310;2022-07-06T07:35:33;15.52;;;13.80;;
28910;SDS011;16028;42.642;23.310;2022-07-06T07:38:01;19.42;;;14.02;;
28910;SDS011;16028;42.642;23.310;2022-07-06T07:40:31;22.83;;;15.05;;
28910;SDS011;16028;42.642;23.310;2022-07-06T07:42:58;19.40;;;14.45;;
28910;SDS011;16028;42.642;23.310;2022-07-06T07:45:26;19.00;;;14.88;;
28910;SDS011;16028;42.642;23.310;2022-07-06T07:47:54;19.67;;;14.52;;
28910;SDS011;16028;42.642;23.310;2022-07-06T07:50:21;18.98;;;13.55;;
28910;SDS011;16028;42.642;23.310;2022-07-06T07:52:48;16.73;;;13.27;;
28910;SDS011;16028;42.642;23.310;2022-07-06T07:55:16;20.60;;;14.75;;
28910;SDS011;16028;42.642;23.310;2022-07-06T07:57:43;16.17;;;13.68;;
28910;SDS011;16028;42.642;23.310;2022-07-06T08:00:10;15.95;;;14.25;;
28910;SDS011;16028;42.642;23.310;2022-07-06T08:02:38;18.10;;;14.27;;
28910;SDS011;16028;42.642;23.310;2022-07-06T08:05:05;19.13;;;15.23;;
28910;SDS011;16028;42.642;23.310;2022-07-06T08:07:33;18.42;;;14.30;;
28910;SDS011;16028;42.642;23.310;2022-07-06T08:10:00;16.80;;;14.27;;
28910;SDS011;16028;42.642;23.310;2022-07-06T08:12:28;19.65;;;13.77;;
28910;SDS011;16028;42.642;23.310;2022-07-06T08:14:56;17.38;;;14.20;;
28910;SDS011;16028;42.642;23.310;2022-07-06T08:17:23;18.58;;;13.15;;
28910;SDS011;16028;42.642;23.310;2022-07-06T08:19:51;17.42;;;13.43;;
28910;SDS011;16028;42.642;23.310;2022-07-06T08:22:17;19.95;;;13.75;;
28910;SDS011;16028;42.642;23.310;2022-07-06T08:24:44;18.50;;;13.88;;
28910;SDS011;16028;42.642;23.310;2022-07-06T08:27:11;16.02;;;12.43;;
28910;SDS011;16028;42.642;23.310;2022-07-06T08:29:39;17.45;;;12.27;;
28910;SDS011;16028;42.642;23.310;2022-07-06T08:32:06;15.82;;;12.73;;
28910;SDS011;16028;42.642;23.310;2022-07-06T08:34:33;16.27;;;12.55;;
28910;SDS011;16028;42.642;23.310;2022-07-06T08:37:00;19.77;;;12.77;;
28910;SDS011;16028;42.642;23.310;2022-07-06T08:39:29;14.18;;;12.25;;
28910;SDS011;16028;42.642;23.310;2022-07-06T08:41:56;20.17;;;12.50;;
28910;SDS011;16028;42.642;23.310;2022-07-06T08:44:24;16.52;;;12.82;;
28910;SDS011;16028;42.642;23.310;2022-07-06T08:46:53;16.38;;;11.85;;
28910;SDS011;16028;42.642;23.310;2022-07-06T08:49:22;20.55;;;13.10;;
28910;SDS011;16028;42.642;23.310;2022-07-06T08:51:50;15.65;;;12.88;;
28910;SDS011;16028;42.642;23.310;2022-07-06T08:54:18;15.18;;;13.05;;
28910;SDS011;16028;42.642;23.310;2022-07-06T08:56:48;19.38;;;13.52;;
28910;SDS011;16028;42.642;23.310;2022-07-06T08:59:15;16.33;;;13.63;;
28910;SDS011;16028;42.642;23.310;2022-07-06T09:01:42;20.85;;;13.85;;
28910;SDS011;16028;42.642;23.310;2022-07-06T09:04:12;15.82;;;13.25;;
28910;SDS011;16028;42.642;23.310;2022-07-06T09:06:42;14.85;;;13.05;;
28910;SDS011;16028;42.642;23.310;2022-07-06T09:09:12;15.98;;;13.93;;
28910;SDS011;16028;42.642;23.310;2022-07-06T09:11:45;17.95;;;12.82;;
28910;SDS011;16028;42.642;23.310;2022-07-06T09:14:11;13.90;;;12.48;;
28910;SDS011;16028;42.642;23.310;2022-07-06T09:16:38;16.33;;;12.95;;
28910;SDS011;16028;42.642;23.310;2022-07-06T09:19:06;15.65;;;12.57;;
28910;SDS011;16028;42.642;23.310;2022-07-06T09:21:34;18.17;;;11.95;;
28910;SDS011;16028;42.642;23.310;2022-07-06T09:24:05;16.08;;;12.05;;
28910;SDS011;16028;42.642;23.310;2022-07-06T09:26:33;16.20;;;12.70;;
28910;SDS011;16028;42.642;23.310;2022-07-06T09:29:01;17.40;;;12.20;;
28910;SDS011;16028;42.642;23.310;2022-07-06T09:31:31;17.30;;;12.65;;
28910;SDS011;16028;42.642;23.310;2022-07-06T09:33:58;15.73;;;12.40;;
28910;SDS011;16028;42.642;23.310;2022-07-06T09:36:44;13.70;;;11.93;;
28910;SDS011;16028;42.642;23.310;2022-07-06T09:39:19;13.50;;;11.65;;
28910;SDS011;16028;42.642;23.310;2022-07-06T09:41:50;16.58;;;11.90;;
28910;SDS011;16028;42.642;23.310;2022-07-06T09:44:19;15.00;;;11.65;;
28910;SDS011;16028;42.642;23.310;2022-07-06T09:46:49;14.38;;;12.85;;
28910;SDS011;16028;42.642;23.310;2022-07-06T09:49:17;15.23;;;11.95;;
28910;SDS011;16028;42.642;23.310;2022-07-06T09:51:46;13.00;;;11.60;;
28910;SDS011;16028;42.642;23.310;2022-07-06T09:54:14;19.05;;;13.23;;
28910;SDS011;16028;42.642;23.310;2022-07-06T09:56:44;15.70;;;12.85;;
28910;SDS011;16028;42.642;23.310;2022-07-06T09:59:16;17.30;;;14.33;;
28910;SDS011;16028;42.642;23.310;2022-07-06T10:01:44;20.25;;;14.82;;
28910;SDS011;16028;42.642;23.310;2022-07-06T10:04:11;18.05;;;14.70;;
28910;SDS011;16028;42.642;23.310;2022-07-06T10:06:40;16.17;;;12.93;;
28910;SDS011;16028;42.642;23.310;2022-07-06T10:09:09;15.70;;;14.00;;
28910;SDS011;16028;42.642;23.310;2022-07-06T10:11:37;16.98;;;14.00;;
28910;SDS011;16028;42.642;23.310;2022-07-06T10:14:08;16.05;;;14.35;;
28910;SDS011;16028;42.642;23.310;2022-07-06T10:16:37;15.55;;;13.45;;
28910;SDS011;16028;42.642;23.310;2022-07-06T10:19:06;18.08;;;13.30;;
28910;SDS011;16028;42.642;23.310;2022-07-06T10:21:35;16.55;;;14.82;;
28910;SDS011;16028;42.642;23.310;2022-07-06T10:24:03;18.45;;;14.57;;
28910;SDS011;16028;42.642;23.310;2022-07-06T10:26:35;16.08;;;13.63;;
28910;SDS011;16028;42.642;23.310;2022-07-06T10:29:03;20.63;;;14.70;;
28910;SDS011;16028;42.642;23.310;2022-07-06T10:31:32;14.32;;;12.80;;
28910;SDS011;16028;42.642;23.310;2022-07-06T10:34:00;17.58;;;14.52;;
28910;SDS011;16028;42.642;23.310;2022-07-06T10:36:29;16.58;;;13.95;;
28910;SDS011;16028;42.642;23.310;2022-07-06T10:38:56;15.35;;;13.75;;
28910;SDS011;16028;42.642;23.310;2022-07-06T10:41:45;14.93;;;13.07;;
28910;SDS011;16028;42.642;23.310;2022-07-06T10:44:14;20.02;;;13.98;;
28910;SDS011;16028;42.642;23.310;2022-07-06T10:46:46;19.52;;;13.43;;
28910;SDS011;16028;42.642;23.310;2022-07-06T10:51:43;17.52;;;14.57;;
28910;SDS011;16028;42.642;23.310;2022-07-06T10:54:10;15.02;;;12.88;;
28910;SDS011;16028;42.642;23.310;2022-07-06T10:56:38;18.92;;;15.25;;
28910;SDS011;16028;42.642;23.310;2022-07-06T10:59:10;15.20;;;12.88;;
28910;SDS011;16028;42.642;23.310;2022-07-06T11:01:37;16.67;;;13.48;;
28910;SDS011;16028;42.642;23.310;2022-07-06T11:04:06;15.57;;;13.70;;
28910;SDS011;16028;42.642;23.310;2022-07-06T11:06:34;19.17;;;14.75;;
28910;SDS011;16028;42.642;23.310;2022-07-06T11:09:02;14.85;;;13.23;;
28910;SDS011;16028;42.642;23.310;2022-07-06T11:11:40;16.80;;;14.10;;
28910;SDS011;16028;42.642;23.310;2022-07-06T11:14:11;16.00;;;14.20;;
28910;SDS011;16028;42.642;23.310;2022-07-06T11:19:27;16.85;;;14.35;;
28910;SDS011;16028;42.642;23.310;2022-07-06T11:21:55;16.33;;;14.48;;
28910;SDS011;16028;42.642;23.310;2022-07-06T11:24:25;16.90;;;15.20;;
28910;SDS011;16028;42.642;23.310;2022-07-06T11:26:53;18.70;;;16.55;;
28910;SDS011;16028;42.642;23.310;2022-07-06T11:29:29;17.42;;;14.60;;
28910;SDS011;16028;42.642;23.310;2022-07-06T11:31:57;17.52;;;14.55;;
28910;SDS011;16028;42.642;23.310;2022-07-06T11:34:26;21.50;;;15.20;;
28910;SDS011;16028;42.642;23.310;2022-07-06T11:36:55;18.08;;;16.15;;
28910;SDS011;16028;42.642;23.310;2022-07-06T11:39:22;18.83;;;14.02;;
28910;SDS011;16028;42.642;23.310;2022-07-06T11:41:52;15.55;;;14.00;;
28910;SDS011;16028;42.642;23.310;2022-07-06T11:44:20;16.15;;;14.55;;
28910;SDS011;16028;42.642;23.310;2022-07-06T11:46:49;16.60;;;14.77;;
28910;SDS011;16028;42.642;23.310;2022-07-06T11:49:16;15.57;;;14.05;;
28910;SDS011;16028;42.642;23.310;2022-07-06T11:51:45;16.45;;;13.70;;
28910;SDS011;16028;42.642;23.310;2022-07-06T11:54:13;14.48;;;13.02;;
28910;SDS011;16028;42.642;23.310;2022-07-06T11:56:45;17.88;;;14.40;;
28910;SDS011;16028;42.642;23.310;2022-07-06T11:59:12;14.90;;;13.35;;
28910;SDS011;16028;42.642;23.310;2022-07-06T12:01:41;15.75;;;13.50;;
28910;SDS011;16028;42.642;23.310;2022-07-06T12:04:13;15.10;;;13.07;;
28910;SDS011;16028;42.642;23.310;2022-07-06T12:06:40;16.10;;;14.02;;
28910;SDS011;16028;42.642;23.310;2022-07-06T12:09:10;13.98;;;12.45;;
28910;SDS011;16028;42.642;23.310;2022-07-06T12:11:38;13.70;;;12.30;;
28910;SDS011;16028;42.642;23.310;2022-07-06T12:14:12;14.98;;;13.45;;
28910;SDS011;16028;42.642;23.310;2022-07-06T12:16:40;16.17;;;14.57;;
28910;SDS011;16028;42.642;23.310;2022-07-06T12:19:07;14.95;;;13.45;;
28910;SDS011;16028;42.642;23.310;2022-07-06T12:21:37;16.40;;;14.73;;
28910;SDS011;16028;42.642;23.310;2022-07-06T12:24:09;18.38;;;15.77;;
28910;SDS011;16028;42.642;23.310;2022-07-06T12:26:38;16.77;;;13.45;;
28910;SDS011;16028;42.642;23.310;2022-07-06T12:29:09;14.18;;;12.68;;
28910;SDS011;16028;42.642;23.310;2022-07-06T12:31:39;13.35;;;12.02;;
28910;SDS011;16028;42.642;23.310;2022-07-06T12:34:11;13.07;;;11.23;;
28910;SDS011;16028;42.642;23.310;2022-07-06T12:36:44;12.60;;;11.40;;
28910;SDS011;16028;42.642;23.310;2022-07-06T12:39:12;13.25;;;11.85;;
28910;SDS011;16028;42.642;23.310;2022-07-06T12:41:44;11.85;;;10.32;;
28910;SDS011;16028;42.642;23.310;2022-07-06T12:44:12;12.15;;;10.50;;
28910;SDS011;16028;42.642;23.310;2022-07-06T12:46:40;12.70;;;10.70;;
28910;SDS011;16028;42.642;23.310;2022-07-06T12:49:12;12.32;;;10.30;;
28910;SDS011;16028;42.642;23.310;2022-07-06T12:51:57;11.27;;;10.13;;
28910;SDS011;16028;42.642;23.310;2022-07-06T12:54:28;16.25;;;10.38;;
28910;SDS011;16028;42.642;23.310;2022-07-06T12:57:03;11.48;;;10.38;;
28910;SDS011;16028;42.642;23.310;2022-07-06T12:59:32;13.20;;;9.65;;
28910;SDS011;16028;42.642;23.310;2022-07-06T13:02:01;11.15;;;9.55;;
28910;SDS011;16028;42.642;23.310;2022-07-06T13:04:29;11.35;;;9.95;;
28910;SDS011;16028;42.642;23.310;2022-07-06T13:06:59;10.52;;;9.30;;
28910;SDS011;16028;42.642;23.310;2022-07-06T13:09:27;10.38;;;9.30;;
28910;SDS011;16028;42.642;23.310;2022-07-06T13:11:54;10.75;;;9.10;;
28910;SDS011;16028;42.642;23.310;2022-07-06T13:14:21;10.32;;;9.23;;
28910;SDS011;16028;42.642;23.310;2022-07-06T13:16:48;10.40;;;9.45;;
28910;SDS011;16028;42.642;23.310;2022-07-06T13:19:15;9.50;;;8.57;;
28910;SDS011;16028;42.642;23.310;2022-07-06T13:21:42;7.80;;;7.10;;
28910;SDS011;16028;42.642;23.310;2022-07-06T13:24:12;7.07;;;6.38;;
28910;SDS011;16028;42.642;23.310;2022-07-06T13:26:39;7.57;;;6.78;;
28910;SDS011;16028;42.642;23.310;2022-07-06T13:29:06;8.40;;;5.97;;
28910;SDS011;16028;42.642;23.310;2022-07-06T13:31:35;10.20;;;5.72;;
28910;SDS011;16028;42.642;23.310;2022-07-06T13:34:03;9.02;;;6.35;;
28910;SDS011;16028;42.642;23.310;2022-07-06T13:36:30;8.57;;;6.00;;
28910;SDS011;16028;42.642;23.310;2022-07-06T13:38:57;10.70;;;6.03;;
28910;SDS011;16028;42.642;23.310;2022-07-06T13:41:26;7.32;;;6.38;;
28910;SDS011;16028;42.642;23.310;2022-07-06T13:43:52;7.53;;;6.47;;
28910;SDS011;16028;42.642;23.310;2022-07-06T13:46:19;8.95;;;5.78;;
28910;SDS011;16028;42.642;23.310;2022-07-06T13:48:47;5.13;;;4.63;;
28910;SDS011;16028;42.642;23.310;2022-07-06T13:51:14;4.70;;;4.30;;
28910;SDS011;16028;42.642;23.310;2022-07-06T13:53:41;7.88;;;4.57;;
28910;SDS011;16028;42.642;23.310;2022-07-06T13:56:08;5.53;;;4.03;;
28910;SDS011;16028;42.642;23.310;2022-07-06T13:58:36;4.25;;;3.88;;
28910;SDS011;16028;42.642;23.310;2022-07-06T14:01:03;5.22;;;3.50;;
28910;SDS011;16028;42.642;23.310;2022-07-06T14:03:30;3.88;;;3.45;;
28910;SDS011;16028;42.642;23.310;2022-07-06T14:05:58;3.38;;;3.08;;
28910;SDS011;16028;42.642;23.310;2022-07-06T14:08:25;10.13;;;3.58;;
28910;SDS011;16028;42.642;23.310;2022-07-06T14:10:55;3.28;;;2.95;;
28910;SDS011;16028;42.642;23.310;2022-07-06T14:13:25;3.53;;;3.22;;
28910;SDS011;16028;42.642;23.310;2022-07-06T14:15:55;3.67;;;2.92;;
28910;SDS011;16028;42.642;23.310;2022-07-06T14:18:24;3.22;;;2.75;;
28910;SDS011;16028;42.642;23.310;2022-07-06T14:20:52;2.80;;;2.60;;
28910;SDS011;16028;42.642;23.310;2022-07-06T14:23:20;3.10;;;2.83;;